createdAt,value
2018-10-11T00:01:04.611Z,101668.91
2018-10-11T00:03:33.828Z,101675.11
2018-10-11T00:06:02.851Z,101681.14
2018-10-11T00:08:31.864Z,101681.63
2018-10-11T00:11:00.906Z,101674.72
2018-10-11T00:13:29.905Z,101675.51
2018-10-11T00:15:59.137Z,101674.50
2018-10-11T00:18:28.145Z,101671.91
2018-10-11T00:20:57.135Z,101669.09
2018-10-11T00:23:26.354Z,101667.64
2018-10-11T00:25:55.402Z,101673.66
2018-10-11T00:28:24.393Z,101675.55
2018-10-11T00:30:53.402Z,101668.50
2018-10-11T00:33:22.686Z,101674.27
2018-10-11T00:35:51.684Z,101665.55
2018-10-11T00:38:20.942Z,101665.14
2018-10-11T00:40:50.074Z,101661.25
2018-10-11T00:43:19.066Z,101656.39
2018-10-11T00:45:48.070Z,101661.27
2018-10-11T00:48:17.125Z,101660.87
2018-10-11T00:50:46.330Z,101658.69
2018-10-11T00:53:15.485Z,101656.06
2018-10-11T00:55:44.503Z,101647.31
2018-10-11T00:58:13.490Z,101650.70
2018-10-11T01:00:42.756Z,101648.57
2018-10-11T01:03:11.895Z,101645.06
2018-10-11T01:05:40.874Z,101634.14
2018-10-11T01:08:10.049Z,101633.37
2018-10-11T01:10:39.093Z,101633.41
2018-10-11T01:13:08.122Z,101627.34
2018-10-11T01:15:37.116Z,101626.61
2018-10-11T01:18:06.541Z,101618.67
2018-10-11T01:20:35.846Z,101619.58
2018-10-11T01:23:04.905Z,101615.26
2018-10-11T01:25:33.905Z,101619.66
2018-10-11T01:28:02.905Z,101617.02
2018-10-11T01:30:32.078Z,101621.33
2018-10-11T01:33:01.303Z,101617.48
2018-10-11T01:35:30.302Z,101616.54
2018-10-11T01:37:59.326Z,101613.39
2018-10-11T01:40:28.410Z,101618.27
2018-10-11T01:43:03.691Z,101618.62
2018-10-11T01:45:33.865Z,101617.02
2018-10-11T01:48:03.436Z,101616.08
2018-10-11T01:50:32.483Z,101623.14
2018-10-11T01:53:01.518Z,101622.20
2018-10-11T01:55:30.519Z,101610.34
2018-10-11T01:57:59.887Z,101611.27
2018-10-11T02:00:28.906Z,101614.41
2018-10-11T02:02:59.215Z,101613.06
2018-10-11T02:05:28.893Z,101610.88
2018-10-11T02:07:58.935Z,101607.39
2018-10-11T02:10:28.873Z,101604.67
2018-10-11T02:12:58.862Z,101610.43
2018-10-11T02:15:28.863Z,101614.88
2018-10-11T02:17:58.587Z,101602.63
2018-10-11T02:20:28.286Z,101600.48
2018-10-11T02:22:57.504Z,101604.92
2018-10-11T02:25:26.513Z,101596.70
2018-10-11T02:27:55.528Z,101597.52
2018-10-11T02:30:24.683Z,101587.09
2018-10-11T02:32:53.778Z,101580.11
2018-10-11T02:35:22.760Z,101590.59
2018-10-11T02:37:51.884Z,101590.58
2018-10-11T02:40:20.870Z,101581.06
2018-10-11T02:42:49.863Z,101589.31
2018-10-11T02:45:18.897Z,101581.06
2018-10-11T02:47:47.891Z,101584.50
2018-10-11T02:50:16.866Z,101591.50
2018-10-11T02:52:45.877Z,101583.71
2018-10-11T02:55:23.065Z,101581.55
2018-10-11T02:58:09.438Z,101579.78
2018-10-11T03:00:38.418Z,101576.33
2018-10-11T03:03:11.559Z,101572.43
2018-10-11T03:05:45.047Z,101575.81
2018-10-11T03:08:18.673Z,101571.55
2018-10-11T03:10:48.099Z,101570.27
2018-10-11T03:13:17.107Z,101573.71
2018-10-11T03:15:46.086Z,101571.91
2018-10-11T03:18:15.497Z,101568.87
2018-10-11T03:20:45.503Z,101572.44
2018-10-11T03:23:15.123Z,101570.23
2018-10-11T03:25:45.439Z,101565.05
2018-10-11T03:28:15.767Z,101569.84
2018-10-11T03:30:44.952Z,101569.41
2018-10-11T03:33:14.775Z,101566.34
2018-10-11T03:35:44.585Z,101564.59
2018-10-11T03:38:14.043Z,101561.19
2018-10-11T03:40:43.688Z,101569.85
2018-10-11T03:43:12.688Z,101561.58
2018-10-11T03:45:41.681Z,101562.03
2018-10-11T03:48:10.991Z,101556.38
2018-10-11T03:50:40.786Z,101557.27
2018-10-11T03:53:09.838Z,101551.62
2018-10-11T03:55:39.199Z,101547.69
2018-10-11T03:58:08.199Z,101561.98
2018-10-11T04:00:37.274Z,101553.38
2018-10-11T04:03:06.480Z,101550.77
2018-10-11T04:05:35.498Z,101549.01
2018-10-11T04:08:04.742Z,101543.81
2018-10-11T04:10:33.807Z,101545.97
2018-10-11T04:13:02.790Z,101542.05
2018-10-11T04:15:31.819Z,101546.36
2018-10-11T04:18:01.122Z,101551.62
2018-10-11T04:20:30.106Z,101542.92
2018-10-11T04:22:59.095Z,101542.08
2018-10-11T04:25:28.351Z,101542.92
2018-10-11T04:27:57.371Z,101535.59
2018-10-11T04:30:26.854Z,101535.13
2018-10-11T04:32:56.789Z,101536.02
2018-10-11T04:35:25.974Z,101536.89
2018-10-11T04:37:54.970Z,101534.28
2018-10-11T04:40:24.205Z,101525.61
2018-10-11T04:42:53.496Z,101523.02
2018-10-11T04:45:22.499Z,101519.55
2018-10-11T04:47:51.545Z,101519.45
2018-10-11T04:50:20.774Z,101518.66
2018-10-11T04:52:49.765Z,101506.95
2018-10-11T04:55:18.856Z,101510.47
2018-10-11T04:57:48.062Z,101512.61
2018-10-11T05:00:17.335Z,101508.70
2018-10-11T05:02:46.362Z,101515.19
2018-10-11T05:05:15.424Z,101510.45
2018-10-11T05:07:44.443Z,101514.35
2018-10-11T05:10:13.691Z,101518.67
2018-10-11T05:12:42.697Z,101516.50
2018-10-11T05:15:11.747Z,101517.78
2018-10-11T05:17:41.194Z,101520.38
2018-10-11T05:20:10.587Z,101521.27
2018-10-11T05:22:39.649Z,101520.83
2018-10-11T05:25:08.675Z,101516.07
2018-10-11T05:27:37.715Z,101516.07
2018-10-11T05:30:06.883Z,101519.94
2018-10-11T05:32:36.512Z,101516.08
2018-10-11T05:35:06.188Z,101515.66
2018-10-11T05:37:35.556Z,101519.97
2018-10-11T05:40:04.828Z,101518.95
2018-10-11T05:42:33.959Z,101527.33
2018-10-11T05:45:12.585Z,101526.36
2018-10-11T05:47:42.208Z,101532.03
2018-10-11T05:50:11.904Z,101522.59
2018-10-11T05:52:41.370Z,101523.00
2018-10-11T05:55:10.457Z,101516.08
2018-10-11T05:57:39.464Z,101518.69
2018-10-11T06:00:10.257Z,101510.84
2018-10-11T06:02:54.704Z,101511.74
2018-10-11T06:05:23.743Z,101509.15
2018-10-11T06:07:52.737Z,101513.50
2018-10-11T06:10:22.036Z,101512.98
2018-10-11T06:12:51.076Z,101514.25
2018-10-11T06:15:20.367Z,101522.92
2018-10-11T06:17:49.389Z,101511.68
2018-10-11T06:20:18.416Z,101512.53
2018-10-11T06:22:47.902Z,101506.03
2018-10-11T06:25:16.925Z,101509.05
2018-10-11T06:27:45.929Z,101510.02
2018-10-11T06:30:15.263Z,101511.74
2018-10-11T06:32:44.768Z,101517.31
2018-10-11T06:35:14.026Z,101508.07
2018-10-11T06:37:44.317Z,101510.71
2018-10-11T06:40:14.501Z,101511.72
2018-10-11T06:42:44.668Z,101506.56
2018-10-11T06:45:15.729Z,101517.84
2018-10-11T06:47:48.961Z,101505.61
2018-10-11T06:50:18.183Z,101517.74
2018-10-11T06:52:47.371Z,101508.62
2018-10-11T06:55:16.454Z,101517.28
2018-10-11T06:57:45.552Z,101526.23
2018-10-11T07:00:14.571Z,101531.01
2018-10-11T07:02:43.636Z,101520.76
2018-10-11T07:05:12.737Z,101520.41
2018-10-11T07:07:41.739Z,101514.37
2018-10-11T07:10:10.769Z,101528.20
2018-10-11T07:12:41.058Z,101523.38
2018-10-11T07:15:10.187Z,101538.61
2018-10-11T07:17:39.201Z,101531.63
2018-10-11T07:20:08.343Z,101540.58
2018-10-11T07:22:37.367Z,101542.70
2018-10-11T07:25:06.447Z,101541.02
2018-10-11T07:27:35.437Z,101534.11
2018-10-11T07:30:04.568Z,101540.58
2018-10-11T07:32:33.642Z,101541.12
2018-10-11T07:35:03.021Z,101539.85
2018-10-11T07:37:31.960Z,101534.05
2018-10-11T07:40:00.974Z,101527.61
2018-10-11T07:42:30.147Z,101529.81
2018-10-11T07:45:00.095Z,101526.88
2018-10-11T07:47:29.140Z,101525.40
2018-10-11T07:49:58.196Z,101520.33
2018-10-11T07:52:27.360Z,101518.59
2018-10-11T07:54:56.358Z,101502.90
2018-10-11T07:57:25.332Z,101499.75
2018-10-11T07:59:54.694Z,101502.34
2018-10-11T08:02:23.690Z,101505.94
2018-10-11T08:04:52.710Z,101505.42
2018-10-11T08:07:21.844Z,101496.30
2018-10-11T08:09:50.851Z,101484.49
2018-10-11T08:12:20.104Z,101491.99
2018-10-11T08:14:49.432Z,101493.08
2018-10-11T08:17:18.802Z,101498.20
2018-10-11T08:19:47.500Z,101513.83
2018-10-11T08:22:16.534Z,101511.84
2018-10-11T08:24:45.995Z,101516.44
2018-10-11T08:27:15.420Z,101514.23
2018-10-11T08:29:44.588Z,101517.25
2018-10-11T08:32:13.686Z,101512.25
2018-10-11T08:34:42.610Z,101519.59
2018-10-11T08:37:11.619Z,101517.36
2018-10-11T08:39:40.629Z,101521.82
2018-10-11T08:42:09.640Z,101515.56
2018-10-11T08:44:38.752Z,101514.56
2018-10-11T08:47:07.751Z,101493.55
2018-10-11T08:49:36.731Z,101504.53
2018-10-11T08:52:05.828Z,101509.16
2018-10-11T08:54:40.081Z,101512.43
2018-10-11T08:57:09.090Z,101511.64
2018-10-11T08:59:38.206Z,101508.51
2018-10-11T09:02:07.362Z,101512.63
2018-10-11T09:04:36.618Z,101506.85
2018-10-11T09:07:05.670Z,101509.72
2018-10-11T09:09:34.711Z,101506.77
2018-10-11T09:12:04.036Z,101500.51
2018-10-11T09:14:33.287Z,101501.61
2018-10-11T09:17:02.375Z,101495.49
2018-10-11T09:19:31.566Z,101495.27
2018-10-11T09:22:01.073Z,101497.14
2018-10-11T09:24:30.484Z,101497.25
2018-10-11T09:26:59.742Z,101503.42
2018-10-11T09:29:29.071Z,101497.25
2018-10-11T09:31:58.955Z,101491.56
2018-10-11T09:34:28.190Z,101496.73
2018-10-11T09:36:57.537Z,101499.52
2018-10-11T09:39:26.570Z,101502.06
2018-10-11T09:41:55.886Z,101490.92
2018-10-11T09:44:24.982Z,101490.03
2018-10-11T09:46:53.988Z,101490.16
2018-10-11T09:49:23.093Z,101488.22
2018-10-11T09:51:52.427Z,101488.72
2018-10-11T09:54:21.576Z,101486.36
2018-10-11T09:57:23.227Z,101485.78
2018-10-11T09:59:52.364Z,101478.14
2018-10-11T10:02:21.974Z,101485.44
2018-10-11T10:04:52.359Z,101486.95
2018-10-11T10:07:21.371Z,101485.73
2018-10-11T10:09:50.511Z,101478.09
2018-10-11T10:12:19.748Z,101474.47
2018-10-11T10:14:49.679Z,101473.41
2018-10-11T10:17:19.112Z,101474.84
2018-10-11T10:19:48.369Z,101482.52
2018-10-11T10:22:17.453Z,101477.98
2018-10-11T10:24:46.494Z,101480.92
2018-10-11T10:27:15.661Z,101484.59
2018-10-11T10:29:44.855Z,101484.91
2018-10-11T10:32:13.925Z,101477.82
2018-10-11T10:34:42.956Z,101481.61
2018-10-11T10:37:12.024Z,101469.70
2018-10-11T10:39:41.132Z,101467.13
2018-10-11T10:42:10.137Z,101469.56
2018-10-11T10:44:39.350Z,101462.02
2018-10-11T10:47:08.718Z,101458.03
2018-10-11T10:49:37.727Z,101450.50
2018-10-11T10:52:06.817Z,101450.30
2018-10-11T10:54:36.427Z,101441.52
2018-10-11T10:57:06.251Z,101435.58
2018-10-11T10:59:35.273Z,101438.81
2018-10-11T11:02:04.356Z,101428.98
2018-10-11T11:04:33.636Z,101434.09
2018-10-11T11:07:02.641Z,101431.38
2018-10-11T11:09:31.870Z,101428.20
2018-10-11T11:12:00.862Z,101433.52
2018-10-11T11:14:29.876Z,101437.30
2018-10-11T11:16:58.887Z,101427.11
2018-10-11T11:19:27.881Z,101425.57
2018-10-11T11:21:56.949Z,101421.03
2018-10-11T11:24:26.199Z,101413.86
2018-10-11T11:26:55.178Z,101420.08
2018-10-11T11:29:24.699Z,101407.81
2018-10-11T11:31:53.699Z,101412.63
2018-10-11T11:34:22.935Z,101409.02
2018-10-11T11:36:52.267Z,101401.20
2018-10-11T11:39:21.373Z,101397.30
2018-10-11T11:41:50.459Z,101397.55
2018-10-11T11:44:19.581Z,101401.08
2018-10-11T11:46:48.718Z,101394.59
2018-10-11T11:49:17.812Z,101394.90
2018-10-11T11:51:46.870Z,101399.20
2018-10-11T11:54:19.977Z,101395.19
2018-10-11T11:56:49.507Z,101398.03
2018-10-11T11:59:18.695Z,101399.39
2018-10-11T12:01:47.774Z,101401.59
2018-10-11T12:04:17.178Z,101406.16
2018-10-11T12:06:46.214Z,101396.45
2018-10-11T12:09:15.834Z,101399.73
2018-10-11T12:11:44.835Z,101395.94
2018-10-11T12:14:13.930Z,101389.87
2018-10-11T12:16:43.089Z,101386.45
2018-10-11T12:19:12.466Z,101389.44
2018-10-11T12:21:41.497Z,101393.74
2018-10-11T12:24:10.626Z,101390.88
2018-10-11T12:26:39.628Z,101388.39
2018-10-11T12:29:08.667Z,101381.46
2018-10-11T12:31:38.018Z,101389.87
2018-10-11T12:34:07.074Z,101384.91
2018-10-11T12:36:36.273Z,101387.23
2018-10-11T12:39:07.820Z,101385.77
2018-10-11T12:41:36.837Z,101377.23
2018-10-11T12:44:06.051Z,101379.61
2018-10-11T12:46:35.371Z,101375.98
2018-10-11T12:49:04.427Z,101368.80
2018-10-11T12:51:33.511Z,101360.37
2018-10-11T12:54:02.615Z,101352.55
2018-10-11T12:56:31.696Z,101360.83
2018-10-11T12:59:00.794Z,101364.28
2018-10-11T13:01:29.844Z,101358.45
2018-10-11T13:03:58.963Z,101363.03
2018-10-11T13:06:28.018Z,101358.94
2018-10-11T13:08:57.359Z,101353.26
2018-10-11T13:11:26.667Z,101355.48
2018-10-11T13:13:55.696Z,101355.33
2018-10-11T13:16:24.857Z,101353.62
2018-10-11T13:18:53.944Z,101339.55
2018-10-11T13:21:22.969Z,101341.39
2018-10-11T13:23:52.005Z,101335.64
2018-10-11T13:26:21.296Z,101338.83
2018-10-11T13:28:51.645Z,101346.48
2018-10-11T13:31:21.815Z,101345.54
2018-10-11T13:33:52.857Z,101343.14
2018-10-11T13:36:19.899Z,101342.11
2018-10-11T13:38:48.938Z,101338.42
2018-10-11T13:41:18.044Z,101337.81
2018-10-11T13:43:47.015Z,101337.80
2018-10-11T13:46:16.045Z,101341.84
2018-10-11T13:48:45.075Z,101343.19
2018-10-11T13:51:14.148Z,101338.91
2018-10-11T13:53:46.822Z,101333.56
2018-10-11T13:56:12.410Z,101331.20
2018-10-11T13:58:41.584Z,101328.80
2018-10-11T14:01:10.566Z,101322.95
2018-10-11T14:03:39.628Z,101325.97
2018-10-11T14:06:08.675Z,101321.22
2018-10-11T14:08:37.710Z,101316.62
2018-10-11T14:11:07.070Z,101313.30
2018-10-11T14:13:36.829Z,101319.51
2018-10-11T14:16:06.423Z,101326.27
2018-10-11T14:18:35.739Z,101321.08
2018-10-11T14:21:05.473Z,101309.78
2018-10-11T14:23:34.675Z,101311.77
2018-10-11T14:26:04.032Z,101310.68
2018-10-11T14:28:33.043Z,101306.91
2018-10-11T14:31:02.063Z,101313.80
2018-10-11T14:33:31.324Z,101308.58
2018-10-11T14:36:00.607Z,101305.23
2018-10-11T14:38:29.611Z,101296.92
2018-10-11T14:40:59.200Z,101303.66
2018-10-11T14:43:28.273Z,101305.52
2018-10-11T14:45:57.337Z,101307.36
2018-10-11T14:48:26.362Z,101302.48
2018-10-11T14:50:55.491Z,101304.77
2018-10-11T14:53:24.475Z,101305.56
2018-10-11T14:55:53.494Z,101306.31
2018-10-11T14:58:22.515Z,101300.23
2018-10-11T15:00:51.648Z,101296.59
2018-10-11T15:03:20.743Z,101294.22
2018-10-11T15:05:49.732Z,101293.48
2018-10-11T15:08:18.788Z,101297.41
2018-10-11T15:10:48.349Z,101297.55
2018-10-11T15:13:17.703Z,101297.86
2018-10-11T15:15:46.946Z,101304.15
2018-10-11T15:18:15.935Z,101303.91
2018-10-11T15:20:45.308Z,101308.24
2018-10-11T15:23:14.476Z,101309.86
2018-10-11T15:25:43.519Z,101314.55
2018-10-11T15:28:12.922Z,101312.68
2018-10-11T15:30:41.985Z,101308.74
2018-10-11T15:36:05.664Z,101307.48
2018-10-11T15:38:35.105Z,101309.76
2018-10-11T15:41:04.615Z,101310.15
2018-10-11T15:43:35.296Z,101316.91
2018-10-11T15:46:08.506Z,101316.85
2018-10-11T15:48:42.396Z,101321.76
2018-10-11T15:51:11.719Z,101317.17
2018-10-11T15:53:42.554Z,101305.42
2018-10-11T15:56:17.698Z,101302.05
2018-10-11T15:58:48.184Z,101302.70
2018-10-11T16:01:36.753Z,101304.28
2018-10-11T16:04:11.853Z,101298.92
2018-10-11T16:06:58.935Z,101305.73
2018-10-11T16:09:59.147Z,101312.19
2018-10-11T16:13:07.693Z,101318.42
2018-10-11T16:17:50.026Z,101314.39
2018-10-11T16:20:24.960Z,101318.77
2018-10-11T16:22:55.012Z,101321.40
2018-10-11T16:25:24.497Z,101322.81
2018-10-11T16:27:54.065Z,101325.66
2018-10-11T16:30:29.239Z,101327.78
2018-10-11T16:35:35.245Z,101326.29
2018-10-11T16:38:04.507Z,101327.44
2018-10-11T16:40:33.557Z,101326.62
2018-10-11T16:43:04.447Z,101325.70
2018-10-11T16:45:35.066Z,101331.61
2018-10-11T16:48:12.408Z,101332.47
2018-10-11T16:50:41.969Z,101342.11
2018-10-11T16:53:20.972Z,101347.00
2018-10-11T16:55:50.283Z,101351.75
2018-10-11T16:58:19.992Z,101344.45
2018-10-11T17:00:51.167Z,101356.88
2018-10-11T17:03:20.519Z,101343.56
2018-10-11T17:05:50.047Z,101347.73
2018-10-11T17:08:19.195Z,101351.20
2018-10-11T17:10:49.686Z,101356.25
2018-10-11T17:13:18.759Z,101354.03
2018-10-11T17:15:53.641Z,101353.19
2018-10-11T17:18:23.050Z,101359.03
2018-10-11T17:20:54.248Z,101359.84
2018-10-11T17:23:24.967Z,101354.94
2018-10-11T17:25:54.362Z,101350.66
2018-10-11T17:28:24.296Z,101356.53
2018-10-11T17:30:56.799Z,101345.20
2018-10-11T17:33:26.092Z,101355.52
2018-10-11T17:35:55.390Z,101354.77
2018-10-11T17:38:24.511Z,101350.41
2018-10-11T17:40:53.979Z,101353.42
2018-10-11T17:43:23.497Z,101345.27
2018-10-11T17:45:53.069Z,101339.21
2018-10-11T17:48:27.949Z,101342.94
2018-10-11T17:51:02.467Z,101338.91
2018-10-11T17:53:35.350Z,101340.05
2018-10-11T17:56:05.646Z,101336.50
2018-10-11T17:58:36.224Z,101343.79
2018-10-11T18:01:07.220Z,101343.42
2018-10-11T18:03:36.673Z,101351.20
2018-10-11T18:06:06.312Z,101345.19
2018-10-11T18:08:36.326Z,101348.56
2018-10-11T18:11:05.660Z,101355.30
2018-10-11T18:13:37.118Z,101363.62
2018-10-11T18:16:06.294Z,101354.61
2018-10-11T18:18:35.735Z,101345.59
2018-10-11T18:21:04.784Z,101346.33
2018-10-11T18:23:42.920Z,101350.84
2018-10-11T18:26:12.139Z,101350.18
2018-10-11T18:28:41.477Z,101347.55
2018-10-11T18:31:13.699Z,101349.01
2018-10-11T18:33:44.464Z,101353.98
2018-10-11T18:36:13.928Z,101355.87
2018-10-11T18:38:43.230Z,101360.86
2018-10-11T18:41:13.423Z,101352.84
2018-10-11T18:43:43.676Z,101354.55
2018-10-11T18:46:12.749Z,101363.16
2018-10-11T18:48:42.225Z,101359.88
2018-10-11T18:51:12.648Z,101368.84
2018-10-11T18:53:42.490Z,101369.09
2018-10-11T18:56:14.396Z,101370.20
2018-10-11T18:58:44.088Z,101372.87
2018-10-11T19:01:13.344Z,101368.95
2018-10-11T19:03:42.414Z,101377.11
2018-10-11T19:06:11.816Z,101383.59
2018-10-11T19:08:41.006Z,101376.73
2018-10-11T19:11:10.365Z,101382.52
2018-10-11T19:13:39.596Z,101384.55
2018-10-11T19:16:09.192Z,101389.73
2018-10-11T19:18:38.642Z,101384.88
2018-10-11T19:21:07.914Z,101385.88
2018-10-11T19:23:38.357Z,101388.42
2018-10-11T19:26:07.866Z,101391.50
2018-10-11T19:28:37.133Z,101388.06
2018-10-11T19:31:07.499Z,101380.64
2018-10-11T19:33:36.673Z,101388.77
2018-10-11T19:36:06.794Z,101385.58
2018-10-11T19:38:36.097Z,101397.86
2018-10-11T19:41:05.174Z,101396.61
2018-10-11T19:43:34.875Z,101405.84
2018-10-11T19:46:04.324Z,101409.94
2018-10-11T19:48:33.366Z,101410.01
2018-10-11T19:51:02.396Z,101409.73
2018-10-11T19:53:31.439Z,101411.31
2018-10-11T19:56:00.677Z,101418.12
2018-10-11T19:58:30.167Z,101418.41
2018-10-11T20:00:59.424Z,101422.84
2018-10-11T20:03:28.571Z,101423.61
2018-10-11T20:05:57.648Z,101422.00
2018-10-11T20:08:27.042Z,101428.44
2018-10-11T20:10:56.048Z,101429.68
2018-10-11T20:13:25.106Z,101429.66
2018-10-11T20:15:54.204Z,101433.23
2018-10-11T20:18:23.333Z,101425.33
2018-10-11T20:20:52.601Z,101436.22
2018-10-11T20:23:21.916Z,101437.33
2018-10-11T20:25:51.211Z,101440.97
2018-10-11T20:28:20.180Z,101442.02
2018-10-11T20:30:49.490Z,101445.94
2018-10-11T20:33:18.540Z,101450.22
2018-10-11T20:35:47.522Z,101447.13
2018-10-11T20:38:16.543Z,101443.24
2018-10-11T20:40:45.849Z,101439.98
2018-10-11T20:43:14.924Z,101440.56
2018-10-11T20:45:43.963Z,101448.14
2018-10-11T20:48:13.036Z,101451.38
2018-10-11T20:50:42.131Z,101445.34
2018-10-11T20:53:11.175Z,101449.52
2018-10-11T20:55:40.224Z,101452.84
2018-10-11T20:58:09.587Z,101452.69
2018-10-11T21:00:38.598Z,101452.86
2018-10-11T21:03:07.880Z,101454.59
2018-10-11T21:05:36.902Z,101458.77
2018-10-11T21:08:06.175Z,101460.30
2018-10-11T21:10:35.199Z,101460.26
2018-10-11T21:13:04.428Z,101468.26
2018-10-11T21:15:33.479Z,101479.58
2018-10-11T21:18:02.769Z,101475.31
2018-10-11T21:20:32.247Z,101474.48
2018-10-11T21:23:01.430Z,101473.55
2018-10-11T21:25:30.749Z,101468.18
2018-10-11T21:27:59.796Z,101467.07
2018-10-11T21:30:29.420Z,101472.91
2018-10-11T21:32:59.138Z,101477.14
2018-10-11T21:35:29.364Z,101473.66
2018-10-11T21:38:00.541Z,101468.53
2018-10-11T21:40:30.316Z,101465.13
2018-10-11T21:42:59.884Z,101472.17
2018-10-11T21:45:29.177Z,101472.12
2018-10-11T21:47:58.532Z,101472.25
2018-10-11T21:50:28.928Z,101472.25
2018-10-11T21:52:58.319Z,101478.38
2018-10-11T21:55:27.407Z,101477.98
2018-10-11T21:57:56.426Z,101483.16
2018-10-11T22:00:31.024Z,101480.95
2018-10-11T22:03:00.357Z,101477.30
2018-10-11T22:05:30.207Z,101479.64
2018-10-11T22:07:59.767Z,101474.80
2018-10-11T22:10:29.020Z,101481.91
2018-10-11T22:12:58.242Z,101482.37
2018-10-11T22:15:27.282Z,101479.75
2018-10-11T22:17:56.318Z,101485.44
2018-10-11T22:20:25.347Z,101485.53
2018-10-11T22:22:54.345Z,101481.69
2018-10-11T22:25:23.716Z,101480.87
2018-10-11T22:27:53.086Z,101488.33
2018-10-11T22:30:22.126Z,101491.69
2018-10-11T22:32:51.143Z,101483.55
2018-10-11T22:35:20.160Z,101487.18
2018-10-11T22:37:55.102Z,101495.19
2018-10-11T22:40:24.127Z,101488.50
2018-10-11T22:42:53.127Z,101493.03
2018-10-11T22:45:22.516Z,101488.75
2018-10-11T22:47:51.543Z,101484.44
2018-10-11T22:50:20.649Z,101487.25
2018-10-11T22:52:49.690Z,101490.36
2018-10-11T22:55:18.682Z,101486.09
2018-10-11T22:57:47.836Z,101476.74
2018-10-11T23:00:16.872Z,101478.60
2018-10-11T23:02:45.945Z,101476.78
2018-10-11T23:05:14.957Z,101477.90
2018-10-11T23:07:44.058Z,101490.02
2018-10-11T23:10:13.085Z,101481.81
2018-10-11T23:12:42.164Z,101481.67
2018-10-11T23:15:11.644Z,101482.81
2018-10-11T23:17:40.816Z,101483.58
2018-10-11T23:20:10.408Z,101484.48
2018-10-11T23:22:40.210Z,101485.93
2018-10-11T23:25:09.609Z,101493.23
2018-10-11T23:27:38.986Z,101486.80
2018-10-11T23:30:09.691Z,101486.80
2018-10-11T23:32:39.442Z,101494.19
2018-10-11T23:35:08.763Z,101499.55
2018-10-11T23:37:38.017Z,101496.17
2018-10-11T23:40:07.180Z,101505.77
2018-10-11T23:42:36.512Z,101504.72
2018-10-11T23:45:05.894Z,101507.64
2018-10-11T23:47:34.883Z,101510.77
2018-10-11T23:50:03.923Z,101502.61
2018-10-11T23:52:33.331Z,101504.63
2018-10-11T23:55:02.406Z,101508.51
2018-10-11T23:57:31.402Z,101505.72
